sensor_id;sensor_type;location;lat;lon;timestamp;temperature;humidity
65582;DHT22;52231;40.090;18.348;2023-10-09T00:00:26;19.20;93.40
65582;DHT22;52231;40.090;18.348;2023-10-09T00:03:18;19.20;93.50
65582;DHT22;52231;40.090;18.348;2023-10-09T00:05:47;19.20;93.50
65582;DHT22;52231;40.090;18.348;2023-10-09T00:08:16;19.10;93.50
65582;DHT22;52231;40.090;18.348;2023-10-09T00:11:08;19.10;93.60
65582;DHT22;52231;40.090;18.348;2023-10-09T00:13:47;19.00;93.60
65582;DHT22;52231;40.090;18.348;2023-10-09T00:16:20;19.00;93.70
65582;DHT22;52231;40.090;18.348;2023-10-09T00:19:02;19.00;93.80
65582;DHT22;52231;40.090;18.348;2023-10-09T00:21:51;19.00;93.80
65582;DHT22;52231;40.090;18.348;2023-10-09T00:24:23;19.00;93.90
65582;DHT22;52231;40.090;18.348;2023-10-09T00:26:54;18.90;93.90
65582;DHT22;52231;40.090;18.348;2023-10-09T00:29:41;18.90;93.90
65582;DHT22;52231;40.090;18.348;2023-10-09T00:32:13;18.90;93.90
65582;DHT22;52231;40.090;18.348;2023-10-09T00:34:43;18.80;94.00
65582;DHT22;52231;40.090;18.348;2023-10-09T00:37:12;18.90;94.00
65582;DHT22;52231;40.090;18.348;2023-10-09T00:39:50;18.80;94.00
65582;DHT22;52231;40.090;18.348;2023-10-09T00:42:27;18.80;94.10
65582;DHT22;52231;40.090;18.348;2023-10-09T00:45:01;18.80;94.10
65582;DHT22;52231;40.090;18.348;2023-10-09T00:47:33;18.80;94.20
65582;DHT22;52231;40.090;18.348;2023-10-09T00:50:04;18.80;94.10
65582;DHT22;52231;40.090;18.348;2023-10-09T00:52:51;18.80;94.20
65582;DHT22;52231;40.090;18.348;2023-10-09T00:55:22;18.80;94.20
65582;DHT22;52231;40.090;18.348;2023-10-09T00:58:14;18.70;94.20
65582;DHT22;52231;40.090;18.348;2023-10-09T01:00:43;18.60;94.20
65582;DHT22;52231;40.090;18.348;2023-10-09T01:03:13;18.60;94.20
65582;DHT22;52231;40.090;18.348;2023-10-09T01:05:45;18.60;94.20
65582;DHT22;52231;40.090;18.348;2023-10-09T01:08:21;18.60;94.20
65582;DHT22;52231;40.090;18.348;2023-10-09T01:11:15;18.60;94.30
65582;DHT22;52231;40.090;18.348;2023-10-09T01:13:47;18.60;94.20
65582;DHT22;52231;40.090;18.348;2023-10-09T01:16:21;18.60;94.30
65582;DHT22;52231;40.090;18.348;2023-10-09T01:18:52;18.60;94.30
65582;DHT22;52231;40.090;18.348;2023-10-09T01:21:21;18.60;94.30
65582;DHT22;52231;40.090;18.348;2023-10-09T01:23:52;18.60;94.30
65582;DHT22;52231;40.090;18.348;2023-10-09T01:26:37;18.50;94.30
65582;DHT22;52231;40.090;18.348;2023-10-09T01:29:17;18.50;94.30
65582;DHT22;52231;40.090;18.348;2023-10-09T01:31:48;18.40;94.30
65582;DHT22;52231;40.090;18.348;2023-10-09T01:34:24;18.30;94.30
65582;DHT22;52231;40.090;18.348;2023-10-09T01:37:13;18.30;94.30
65582;DHT22;52231;40.090;18.348;2023-10-09T01:42:20;18.10;94.30
65582;DHT22;52231;40.090;18.348;2023-10-09T01:44:57;18.10;94.30
65582;DHT22;52231;40.090;18.348;2023-10-09T01:47:26;18.00;94.30
65582;DHT22;52231;40.090;18.348;2023-10-09T01:50:00;18.00;94.30
65582;DHT22;52231;40.090;18.348;2023-10-09T01:52:32;18.00;94.40
65582;DHT22;52231;40.090;18.348;2023-10-09T01:55:04;17.90;94.30
65582;DHT22;52231;40.090;18.348;2023-10-09T01:57:43;17.90;94.30
65582;DHT22;52231;40.090;18.348;2023-10-09T02:00:13;17.80;94.30
65582;DHT22;52231;40.090;18.348;2023-10-09T02:02:50;17.80;94.30
65582;DHT22;52231;40.090;18.348;2023-10-09T02:05:19;17.80;94.30
65582;DHT22;52231;40.090;18.348;2023-10-09T02:07:47;17.70;94.40
65582;DHT22;52231;40.090;18.348;2023-10-09T02:10:22;17.70;94.40
65582;DHT22;52231;40.090;18.348;2023-10-09T02:13:02;17.60;94.40
65582;DHT22;52231;40.090;18.348;2023-10-09T02:15:40;17.60;94.40
65582;DHT22;52231;40.090;18.348;2023-10-09T02:18:17;17.60;94.40
65582;DHT22;52231;40.090;18.348;2023-10-09T02:20:48;17.60;94.40
65582;DHT22;52231;40.090;18.348;2023-10-09T02:23:36;17.50;94.40
65582;DHT22;52231;40.090;18.348;2023-10-09T02:26:12;17.50;94.40
65582;DHT22;52231;40.090;18.348;2023-10-09T02:28:54;17.40;94.40
65582;DHT22;52231;40.090;18.348;2023-10-09T02:31:50;17.40;94.40
65582;DHT22;52231;40.090;18.348;2023-10-09T02:34:29;17.40;94.40
65582;DHT22;52231;40.090;18.348;2023-10-09T02:37:06;17.50;94.60
65582;DHT22;52231;40.090;18.348;2023-10-09T02:39:39;17.60;94.50
65582;DHT22;52231;40.090;18.348;2023-10-09T02:42:16;17.60;94.60
65582;DHT22;52231;40.090;18.348;2023-10-09T02:44:51;17.60;94.60
65582;DHT22;52231;40.090;18.348;2023-10-09T02:47:20;17.60;94.60
65582;DHT22;52231;40.090;18.348;2023-10-09T02:49:52;17.50;94.60
65582;DHT22;52231;40.090;18.348;2023-10-09T02:52:28;17.50;94.60
65582;DHT22;52231;40.090;18.348;2023-10-09T02:55:02;17.40;94.60
65582;DHT22;52231;40.090;18.348;2023-10-09T02:57:35;17.30;94.60
65582;DHT22;52231;40.090;18.348;2023-10-09T03:00:05;17.30;94.60
65582;DHT22;52231;40.090;18.348;2023-10-09T03:02:37;17.30;94.60
65582;DHT22;52231;40.090;18.348;2023-10-09T03:05:08;17.30;94.60
65582;DHT22;52231;40.090;18.348;2023-10-09T03:07:40;17.30;94.60
65582;DHT22;52231;40.090;18.348;2023-10-09T03:10:08;17.30;94.60
65582;DHT22;52231;40.090;18.348;2023-10-09T03:12:37;17.20;94.60
65582;DHT22;52231;40.090;18.348;2023-10-09T03:15:08;17.20;94.60
65582;DHT22;52231;40.090;18.348;2023-10-09T03:17:37;17.20;94.60
65582;DHT22;52231;40.090;18.348;2023-10-09T03:20:06;17.10;94.60
65582;DHT22;52231;40.090;18.348;2023-10-09T03:22:41;17.20;94.70
65582;DHT22;52231;40.090;18.348;2023-10-09T03:25:10;17.20;94.70
65582;DHT22;52231;40.090;18.348;2023-10-09T03:27:46;17.20;94.60
65582;DHT22;52231;40.090;18.348;2023-10-09T03:30:15;17.20;94.60
65582;DHT22;52231;40.090;18.348;2023-10-09T03:32:53;17.10;94.70
65582;DHT22;52231;40.090;18.348;2023-10-09T03:35:22;17.20;94.70
65582;DHT22;52231;40.090;18.348;2023-10-09T03:38:00;17.30;94.70
65582;DHT22;52231;40.090;18.348;2023-10-09T03:40:28;17.20;94.70
65582;DHT22;52231;40.090;18.348;2023-10-09T03:42:56;17.30;94.70
65582;DHT22;52231;40.090;18.348;2023-10-09T03:45:25;17.30;94.70
65582;DHT22;52231;40.090;18.348;2023-10-09T03:47:55;17.40;94.70
65582;DHT22;52231;40.090;18.348;2023-10-09T03:50:30;17.60;94.70
65582;DHT22;52231;40.090;18.348;2023-10-09T03:53:06;17.70;94.80
65582;DHT22;52231;40.090;18.348;2023-10-09T03:55:36;17.70;94.80
65582;DHT22;52231;40.090;18.348;2023-10-09T03:58:07;17.70;94.80
65582;DHT22;52231;40.090;18.348;2023-10-09T04:00:35;17.70;94.80
65582;DHT22;52231;40.090;18.348;2023-10-09T04:03:13;17.60;94.90
65582;DHT22;52231;40.090;18.348;2023-10-09T04:05:42;17.50;94.90
65582;DHT22;52231;40.090;18.348;2023-10-09T04:08:13;17.40;94.90
65582;DHT22;52231;40.090;18.348;2023-10-09T04:10:47;17.50;94.90
65582;DHT22;52231;40.090;18.348;2023-10-09T04:13:31;17.40;94.90
65582;DHT22;52231;40.090;18.348;2023-10-09T04:16:03;17.40;95.00
65582;DHT22;52231;40.090;18.348;2023-10-09T04:18:39;17.40;94.90
65582;DHT22;52231;40.090;18.348;2023-10-09T04:21:07;17.30;94.90
65582;DHT22;52231;40.090;18.348;2023-10-09T04:23:56;17.30;95.00
65582;DHT22;52231;40.090;18.348;2023-10-09T04:26:50;17.30;95.00
65582;DHT22;52231;40.090;18.348;2023-10-09T04:29:25;17.30;95.00
65582;DHT22;52231;40.090;18.348;2023-10-09T04:31:56;17.30;94.90
65582;DHT22;52231;40.090;18.348;2023-10-09T04:34:28;17.30;94.90
65582;DHT22;52231;40.090;18.348;2023-10-09T04:36:57;17.30;95.00
65582;DHT22;52231;40.090;18.348;2023-10-09T04:39:44;17.20;95.00
65582;DHT22;52231;40.090;18.348;2023-10-09T04:42:16;17.20;95.00
65582;DHT22;52231;40.090;18.348;2023-10-09T04:44:53;17.10;95.00
65582;DHT22;52231;40.090;18.348;2023-10-09T04:47:31;17.00;95.00
65582;DHT22;52231;40.090;18.348;2023-10-09T04:50:17;17.00;95.00
65582;DHT22;52231;40.090;18.348;2023-10-09T04:52:45;17.00;95.00
65582;DHT22;52231;40.090;18.348;2023-10-09T04:55:22;17.00;95.00
65582;DHT22;52231;40.090;18.348;2023-10-09T04:57:53;17.10;95.00
65582;DHT22;52231;40.090;18.348;2023-10-09T05:00:40;17.10;95.00
65582;DHT22;52231;40.090;18.348;2023-10-09T05:03:08;17.20;95.00
65582;DHT22;52231;40.090;18.348;2023-10-09T05:05:40;17.20;95.00
65582;DHT22;52231;40.090;18.348;2023-10-09T05:08:13;17.20;95.10
65582;DHT22;52231;40.090;18.348;2023-10-09T05:10:51;17.30;95.00
65582;DHT22;52231;40.090;18.348;2023-10-09T05:13:32;17.40;95.10
65582;DHT22;52231;40.090;18.348;2023-10-09T05:16:14;17.40;95.10
65582;DHT22;52231;40.090;18.348;2023-10-09T05:18:47;17.60;95.10
65582;DHT22;52231;40.090;18.348;2023-10-09T05:21:26;17.70;95.10
65582;DHT22;52231;40.090;18.348;2023-10-09T05:24:01;17.80;95.10
65582;DHT22;52231;40.090;18.348;2023-10-09T05:26:48;17.90;95.20
65582;DHT22;52231;40.090;18.348;2023-10-09T05:29:25;18.00;95.20
65582;DHT22;52231;40.090;18.348;2023-10-09T05:31:56;18.10;95.20
65582;DHT22;52231;40.090;18.348;2023-10-09T05:34:25;18.30;95.20
65582;DHT22;52231;40.090;18.348;2023-10-09T05:37:04;18.30;95.20
65582;DHT22;52231;40.090;18.348;2023-10-09T05:39:45;18.50;95.20
65582;DHT22;52231;40.090;18.348;2023-10-09T05:42:35;18.60;95.20
65582;DHT22;52231;40.090;18.348;2023-10-09T05:45:16;18.70;95.20
65582;DHT22;52231;40.090;18.348;2023-10-09T05:47:49;18.80;95.30
65582;DHT22;52231;40.090;18.348;2023-10-09T05:50:36;19.00;95.30
65582;DHT22;52231;40.090;18.348;2023-10-09T05:53:06;19.20;95.30
65582;DHT22;52231;40.090;18.348;2023-10-09T05:55:37;19.30;95.30
65582;DHT22;52231;40.090;18.348;2023-10-09T05:58:37;19.50;95.30
65582;DHT22;52231;40.090;18.348;2023-10-09T06:01:31;19.70;95.30
65582;DHT22;52231;40.090;18.348;2023-10-09T06:04:18;19.90;95.30
65582;DHT22;52231;40.090;18.348;2023-10-09T06:06:47;20.00;95.30
65582;DHT22;52231;40.090;18.348;2023-10-09T06:09:24;20.20;95.30
65582;DHT22;52231;40.090;18.348;2023-10-09T06:12:13;20.30;95.30
65582;DHT22;52231;40.090;18.348;2023-10-09T06:15:03;20.40;95.30
65582;DHT22;52231;40.090;18.348;2023-10-09T06:17:46;20.60;95.20
65582;DHT22;52231;40.090;18.348;2023-10-09T06:20:27;20.80;95.10
65582;DHT22;52231;40.090;18.348;2023-10-09T06:23:27;20.90;95.10
65582;DHT22;52231;40.090;18.348;2023-10-09T06:26:15;21.10;95.00
65582;DHT22;52231;40.090;18.348;2023-10-09T06:28:52;21.30;94.80
65582;DHT22;52231;40.090;18.348;2023-10-09T06:31:40;21.40;94.50
65582;DHT22;52231;40.090;18.348;2023-10-09T06:34:27;21.50;94.10
65582;DHT22;52231;40.090;18.348;2023-10-09T06:37:03;21.80;93.60
65582;DHT22;52231;40.090;18.348;2023-10-09T06:39:45;21.90;93.10
65582;DHT22;52231;40.090;18.348;2023-10-09T06:42:27;22.00;92.20
65582;DHT22;52231;40.090;18.348;2023-10-09T06:45:05;22.10;91.80
65582;DHT22;52231;40.090;18.348;2023-10-09T06:47:56;22.30;91.30
65582;DHT22;52231;40.090;18.348;2023-10-09T06:50:35;22.60;90.70
65582;DHT22;52231;40.090;18.348;2023-10-09T06:53:22;22.80;89.70
65582;DHT22;52231;40.090;18.348;2023-10-09T06:55:56;22.90;88.50
65582;DHT22;52231;40.090;18.348;2023-10-09T06:58:33;23.30;88.10
65582;DHT22;52231;40.090;18.348;2023-10-09T07:01:10;23.40;86.40
65582;DHT22;52231;40.090;18.348;2023-10-09T07:03:47;23.50;85.40
65582;DHT22;52231;40.090;18.348;2023-10-09T07:06:40;23.60;84.90
65582;DHT22;52231;40.090;18.348;2023-10-09T07:09:08;23.70;84.30
65582;DHT22;52231;40.090;18.348;2023-10-09T07:11:38;23.80;84.10
65582;DHT22;52231;40.090;18.348;2023-10-09T07:14:12;23.80;83.60
65582;DHT22;52231;40.090;18.348;2023-10-09T07:17:05;24.30;83.30
65582;DHT22;52231;40.090;18.348;2023-10-09T07:19:53;24.60;80.80
65582;DHT22;52231;40.090;18.348;2023-10-09T07:22:22;24.90;79.70
65582;DHT22;52231;40.090;18.348;2023-10-09T07:24:52;25.20;78.40
65582;DHT22;52231;40.090;18.348;2023-10-09T07:27:31;25.20;77.30
65582;DHT22;52231;40.090;18.348;2023-10-09T07:30:20;25.10;77.60
65582;DHT22;52231;40.090;18.348;2023-10-09T07:33:00;25.20;76.60
65582;DHT22;52231;40.090;18.348;2023-10-09T07:35:46;25.30;75.60
65582;DHT22;52231;40.090;18.348;2023-10-09T07:38:21;25.10;75.80
65582;DHT22;52231;40.090;18.348;2023-10-09T07:41:03;25.00;76.00
65582;DHT22;52231;40.090;18.348;2023-10-09T07:43:36;24.90;76.00
65582;DHT22;52231;40.090;18.348;2023-10-09T07:46:15;24.60;76.60
65582;DHT22;52231;40.090;18.348;2023-10-09T07:49:19;24.60;77.00
65582;DHT22;52231;40.090;18.348;2023-10-09T07:51:54;24.60;77.00
65582;DHT22;52231;40.090;18.348;2023-10-09T07:54:23;25.00;76.80
65582;DHT22;52231;40.090;18.348;2023-10-09T07:57:00;25.50;75.20
65582;DHT22;52231;40.090;18.348;2023-10-09T07:59:36;25.70;73.60
65582;DHT22;52231;40.090;18.348;2023-10-09T08:02:09;25.70;72.60
65582;DHT22;52231;40.090;18.348;2023-10-09T08:04:46;25.70;72.60
65582;DHT22;52231;40.090;18.348;2023-10-09T08:07:17;25.80;72.30
65582;DHT22;52231;40.090;18.348;2023-10-09T08:09:53;26.10;72.10
65582;DHT22;52231;40.090;18.348;2023-10-09T08:12:41;26.40;71.80
65582;DHT22;52231;40.090;18.348;2023-10-09T08:15:19;26.70;70.60
65582;DHT22;52231;40.090;18.348;2023-10-09T08:17:53;27.00;69.80
65582;DHT22;52231;40.090;18.348;2023-10-09T08:20:40;27.30;68.70
65582;DHT22;52231;40.090;18.348;2023-10-09T08:23:27;27.50;67.90
65582;DHT22;52231;40.090;18.348;2023-10-09T08:26:02;27.60;67.20
65582;DHT22;52231;40.090;18.348;2023-10-09T08:28:56;27.30;65.70
65582;DHT22;52231;40.090;18.348;2023-10-09T08:31:43;27.20;65.90
65582;DHT22;52231;40.090;18.348;2023-10-09T08:34:14;27.30;65.90
65582;DHT22;52231;40.090;18.348;2023-10-09T08:36:58;27.20;65.70
65582;DHT22;52231;40.090;18.348;2023-10-09T08:39:28;27.20;65.90
65582;DHT22;52231;40.090;18.348;2023-10-09T08:42:01;27.30;66.00
65582;DHT22;52231;40.090;18.348;2023-10-09T08:44:31;27.30;64.60
65582;DHT22;52231;40.090;18.348;2023-10-09T08:47:01;27.30;65.10
65582;DHT22;52231;40.090;18.348;2023-10-09T08:49:30;27.30;64.60
65582;DHT22;52231;40.090;18.348;2023-10-09T08:52:01;27.40;65.00
65582;DHT22;52231;40.090;18.348;2023-10-09T08:54:31;27.40;62.60
65582;DHT22;52231;40.090;18.348;2023-10-09T08:57:03;27.60;62.40
65582;DHT22;52231;40.090;18.348;2023-10-09T08:59:32;27.90;60.00
65582;DHT22;52231;40.090;18.348;2023-10-09T09:02:01;27.90;56.50
65582;DHT22;52231;40.090;18.348;2023-10-09T09:04:41;27.90;57.10
65582;DHT22;52231;40.090;18.348;2023-10-09T09:07:28;28.00;57.10
65582;DHT22;52231;40.090;18.348;2023-10-09T09:09:59;28.00;56.90
65582;DHT22;52231;40.090;18.348;2023-10-09T09:12:45;28.00;57.60
65582;DHT22;52231;40.090;18.348;2023-10-09T09:15:16;28.00;57.50
65582;DHT22;52231;40.090;18.348;2023-10-09T09:17:50;27.90;55.30
65582;DHT22;52231;40.090;18.348;2023-10-09T09:20:23;28.00;55.60
65582;DHT22;52231;40.090;18.348;2023-10-09T09:22:53;28.10;53.30
65582;DHT22;52231;40.090;18.348;2023-10-09T09:25:24;28.10;53.00
65582;DHT22;52231;40.090;18.348;2023-10-09T09:27:53;28.20;54.20
65582;DHT22;52231;40.090;18.348;2023-10-09T09:30:24;28.30;54.80
65582;DHT22;52231;40.090;18.348;2023-10-09T09:32:54;28.30;55.20
65582;DHT22;52231;40.090;18.348;2023-10-09T09:36:04;28.30;56.80
65582;DHT22;52231;40.090;18.348;2023-10-09T09:38:35;28.30;55.90
65582;DHT22;52231;40.090;18.348;2023-10-09T09:41:17;28.50;55.30
65582;DHT22;52231;40.090;18.348;2023-10-09T09:43:58;28.60;54.00
65582;DHT22;52231;40.090;18.348;2023-10-09T09:46:32;28.80;53.60
65582;DHT22;52231;40.090;18.348;2023-10-09T09:49:05;28.80;52.50
65582;DHT22;52231;40.090;18.348;2023-10-09T09:51:35;28.90;52.40
65582;DHT22;52231;40.090;18.348;2023-10-09T09:54:03;28.90;53.50
65582;DHT22;52231;40.090;18.348;2023-10-09T09:56:38;28.90;53.00
65582;DHT22;52231;40.090;18.348;2023-10-09T09:59:08;29.00;53.10
65582;DHT22;52231;40.090;18.348;2023-10-09T10:02:00;29.00;52.80
65582;DHT22;52231;40.090;18.348;2023-10-09T10:04:39;29.00;51.80
65582;DHT22;52231;40.090;18.348;2023-10-09T10:07:27;29.30;52.10
65582;DHT22;52231;40.090;18.348;2023-10-09T10:09:58;29.50;52.00
65582;DHT22;52231;40.090;18.348;2023-10-09T10:13:01;29.60;51.60
65582;DHT22;52231;40.090;18.348;2023-10-09T10:16:04;29.60;51.40
65582;DHT22;52231;40.090;18.348;2023-10-09T10:19:01;29.60;51.20
65582;DHT22;52231;40.090;18.348;2023-10-09T10:21:39;29.50;50.30
65582;DHT22;52231;40.090;18.348;2023-10-09T10:29:39;29.60;47.70
65582;DHT22;52231;40.090;18.348;2023-10-09T10:32:09;29.70;47.30
65582;DHT22;52231;40.090;18.348;2023-10-09T10:40:24;29.90;45.10
65582;DHT22;52231;40.090;18.348;2023-10-09T10:43:21;29.90;44.20
65582;DHT22;52231;40.090;18.348;2023-10-09T10:46:08;30.10;43.50
65582;DHT22;52231;40.090;18.348;2023-10-09T10:48:43;30.20;42.00
65582;DHT22;52231;40.090;18.348;2023-10-09T10:51:15;30.30;42.40
65582;DHT22;52231;40.090;18.348;2023-10-09T10:53:53;30.30;42.40
65582;DHT22;52231;40.090;18.348;2023-10-09T10:56:27;30.20;41.60
65582;DHT22;52231;40.090;18.348;2023-10-09T10:59:05;30.30;42.20
65582;DHT22;52231;40.090;18.348;2023-10-09T11:01:35;30.40;41.80
65582;DHT22;52231;40.090;18.348;2023-10-09T11:04:22;30.30;41.20
65582;DHT22;52231;40.090;18.348;2023-10-09T11:07:01;30.30;41.70
65582;DHT22;52231;40.090;18.348;2023-10-09T11:10:03;30.30;40.70
65582;DHT22;52231;40.090;18.348;2023-10-09T11:15:41;30.20;39.90
65582;DHT22;52231;40.090;18.348;2023-10-09T11:18:14;30.20;39.40
65582;DHT22;52231;40.090;18.348;2023-10-09T11:20:55;30.30;40.00
65582;DHT22;52231;40.090;18.348;2023-10-09T11:23:33;30.60;39.30
65582;DHT22;52231;40.090;18.348;2023-10-09T11:26:06;30.60;38.40
65582;DHT22;52231;40.090;18.348;2023-10-09T11:29:08;30.70;38.50
65582;DHT22;52231;40.090;18.348;2023-10-09T11:32:04;30.50;39.50
65582;DHT22;52231;40.090;18.348;2023-10-09T11:34:33;30.40;39.20
65582;DHT22;52231;40.090;18.348;2023-10-09T11:39:39;30.40;39.80
65582;DHT22;52231;40.090;18.348;2023-10-09T11:42:27;30.40;38.80
65582;DHT22;52231;40.090;18.348;2023-10-09T11:45:25;30.40;37.40
65582;DHT22;52231;40.090;18.348;2023-10-09T11:47:58;30.30;35.50
65582;DHT22;52231;40.090;18.348;2023-10-09T11:53:11;30.30;37.70
65582;DHT22;52231;40.090;18.348;2023-10-09T11:55:49;30.30;36.00
65582;DHT22;52231;40.090;18.348;2023-10-09T11:58:18;30.30;36.40
65582;DHT22;52231;40.090;18.348;2023-10-09T12:00:57;30.30;35.70
65582;DHT22;52231;40.090;18.348;2023-10-09T12:03:32;30.30;35.80
65582;DHT22;52231;40.090;18.348;2023-10-09T12:06:21;30.30;35.60
65582;DHT22;52231;40.090;18.348;2023-10-09T12:09:00;30.10;35.20
65582;DHT22;52231;40.090;18.348;2023-10-09T12:11:28;30.30;35.50
65582;DHT22;52231;40.090;18.348;2023-10-09T12:13:59;30.30;34.50
65582;DHT22;52231;40.090;18.348;2023-10-09T12:16:28;30.10;35.40
65582;DHT22;52231;40.090;18.348;2023-10-09T12:18:57;30.20;36.50
65582;DHT22;52231;40.090;18.348;2023-10-09T12:21:26;30.10;36.50
65582;DHT22;52231;40.090;18.348;2023-10-09T12:23:56;30.20;36.70
65582;DHT22;52231;40.090;18.348;2023-10-09T12:26:29;30.20;38.00
65582;DHT22;52231;40.090;18.348;2023-10-09T12:29:03;30.10;38.30
65582;DHT22;52231;40.090;18.348;2023-10-09T12:31:31;30.20;38.00
65582;DHT22;52231;40.090;18.348;2023-10-09T12:34:02;30.00;38.00
65582;DHT22;52231;40.090;18.348;2023-10-09T12:36:30;29.90;39.20
65582;DHT22;52231;40.090;18.348;2023-10-09T12:39:05;29.90;39.90
65582;DHT22;52231;40.090;18.348;2023-10-09T12:41:35;29.60;38.50
65582;DHT22;52231;40.090;18.348;2023-10-09T12:44:09;29.30;39.10
65582;DHT22;52231;40.090;18.348;2023-10-09T12:46:46;29.20;40.20
65582;DHT22;52231;40.090;18.348;2023-10-09T12:49:21;29.20;40.00
65582;DHT22;52231;40.090;18.348;2023-10-09T12:51:56;29.20;38.20
65582;DHT22;52231;40.090;18.348;2023-10-09T12:54:27;29.20;37.80
65582;DHT22;52231;40.090;18.348;2023-10-09T12:56:59;29.30;38.60
65582;DHT22;52231;40.090;18.348;2023-10-09T12:59:27;29.20;37.70
65582;DHT22;52231;40.090;18.348;2023-10-09T13:01:55;29.10;37.70
65582;DHT22;52231;40.090;18.348;2023-10-09T13:04:26;29.10;37.60
65582;DHT22;52231;40.090;18.348;2023-10-09T13:07:03;29.10;36.90
65582;DHT22;52231;40.090;18.348;2023-10-09T13:09:32;29.00;37.70
65582;DHT22;52231;40.090;18.348;2023-10-09T13:12:33;29.00;37.80
65582;DHT22;52231;40.090;18.348;2023-10-09T13:15:26;28.80;39.00
65582;DHT22;52231;40.090;18.348;2023-10-09T13:17:55;28.80;38.90
65582;DHT22;52231;40.090;18.348;2023-10-09T13:20:23;28.70;39.10
65582;DHT22;52231;40.090;18.348;2023-10-09T13:22:54;28.70;40.00
65582;DHT22;52231;40.090;18.348;2023-10-09T13:25:25;28.60;40.00
65582;DHT22;52231;40.090;18.348;2023-10-09T13:28:02;28.50;40.70
65582;DHT22;52231;40.090;18.348;2023-10-09T13:30:32;28.50;40.10
65582;DHT22;52231;40.090;18.348;2023-10-09T13:33:07;28.50;40.20
65582;DHT22;52231;40.090;18.348;2023-10-09T13:35:42;28.50;38.10
65582;DHT22;52231;40.090;18.348;2023-10-09T13:38:18;28.40;38.90
65582;DHT22;52231;40.090;18.348;2023-10-09T13:40:46;28.30;39.80
65582;DHT22;52231;40.090;18.348;2023-10-09T13:43:16;28.30;39.90
65582;DHT22;52231;40.090;18.348;2023-10-09T13:45:44;28.20;39.80
65582;DHT22;52231;40.090;18.348;2023-10-09T13:48:36;28.10;40.90
65582;DHT22;52231;40.090;18.348;2023-10-09T13:51:12;28.10;41.90
65582;DHT22;52231;40.090;18.348;2023-10-09T13:53:47;28.00;41.60
65582;DHT22;52231;40.090;18.348;2023-10-09T13:56:17;27.90;43.10
65582;DHT22;52231;40.090;18.348;2023-10-09T13:58:51;27.90;43.20
65582;DHT22;52231;40.090;18.348;2023-10-09T14:01:19;27.90;43.30
65582;DHT22;52231;40.090;18.348;2023-10-09T14:04:00;27.80;42.80
65582;DHT22;52231;40.090;18.348;2023-10-09T14:06:28;27.80;42.40
65582;DHT22;52231;40.090;18.348;2023-10-09T14:09:01;27.60;42.50
65582;DHT22;52231;40.090;18.348;2023-10-09T14:11:32;27.60;42.00
65582;DHT22;52231;40.090;18.348;2023-10-09T14:14:05;27.40;43.60
65582;DHT22;52231;40.090;18.348;2023-10-09T14:16:39;27.40;45.60
65582;DHT22;52231;40.090;18.348;2023-10-09T14:19:11;27.40;45.30
65582;DHT22;52231;40.090;18.348;2023-10-09T14:21:41;27.30;44.10
65582;DHT22;52231;40.090;18.348;2023-10-09T14:24:10;27.20;44.30
65582;DHT22;52231;40.090;18.348;2023-10-09T14:26:45;27.10;45.40
65582;DHT22;52231;40.090;18.348;2023-10-09T14:29:15;27.00;44.40
65582;DHT22;52231;40.090;18.348;2023-10-09T14:31:44;26.90;43.50
65582;DHT22;52231;40.090;18.348;2023-10-09T14:34:17;26.90;44.20
65582;DHT22;52231;40.090;18.348;2023-10-09T14:36:45;26.80;44.90
65582;DHT22;52231;40.090;18.348;2023-10-09T14:39:14;26.80;45.90
65582;DHT22;52231;40.090;18.348;2023-10-09T14:41:46;26.80;46.70
65582;DHT22;52231;40.090;18.348;2023-10-09T14:44:15;26.80;47.00
65582;DHT22;52231;40.090;18.348;2023-10-09T14:46:44;26.80;47.10
65582;DHT22;52231;40.090;18.348;2023-10-09T14:49:12;26.70;46.20
65582;DHT22;52231;40.090;18.348;2023-10-09T14:51:43;26.60;45.40
65582;DHT22;52231;40.090;18.348;2023-10-09T14:54:12;26.50;46.30
65582;DHT22;52231;40.090;18.348;2023-10-09T14:56:44;26.40;47.60
65582;DHT22;52231;40.090;18.348;2023-10-09T14:59:13;26.40;48.50
65582;DHT22;52231;40.090;18.348;2023-10-09T15:01:42;26.30;49.10
65582;DHT22;52231;40.090;18.348;2023-10-09T15:04:10;26.30;48.10
65582;DHT22;52231;40.090;18.348;2023-10-09T15:06:42;26.20;46.10
65582;DHT22;52231;40.090;18.348;2023-10-09T15:09:10;26.00;46.00
65582;DHT22;52231;40.090;18.348;2023-10-09T15:11:50;25.90;46.80
65582;DHT22;52231;40.090;18.348;2023-10-09T15:14:18;25.80;47.90
65582;DHT22;52231;40.090;18.348;2023-10-09T15:16:47;25.70;47.40
65582;DHT22;52231;40.090;18.348;2023-10-09T15:19:16;25.60;47.50
65582;DHT22;52231;40.090;18.348;2023-10-09T15:21:44;25.50;48.10
65582;DHT22;52231;40.090;18.348;2023-10-09T15:24:13;25.30;48.20
65582;DHT22;52231;40.090;18.348;2023-10-09T15:26:50;25.30;48.50
65582;DHT22;52231;40.090;18.348;2023-10-09T15:29:26;25.20;48.60
65582;DHT22;52231;40.090;18.348;2023-10-09T15:32:00;25.10;48.60
65582;DHT22;52231;40.090;18.348;2023-10-09T15:34:33;25.00;48.20
65582;DHT22;52231;40.090;18.348;2023-10-09T15:37:05;24.90;48.40
65582;DHT22;52231;40.090;18.348;2023-10-09T15:39:37;24.90;48.00
65582;DHT22;52231;40.090;18.348;2023-10-09T15:42:06;24.80;47.90
65582;DHT22;52231;40.090;18.348;2023-10-09T15:44:34;24.70;47.90
65582;DHT22;52231;40.090;18.348;2023-10-09T15:47:05;24.70;48.30
65582;DHT22;52231;40.090;18.348;2023-10-09T15:49:55;24.60;47.60
65582;DHT22;52231;40.090;18.348;2023-10-09T15:52:23;24.40;47.60
65582;DHT22;52231;40.090;18.348;2023-10-09T15:54:54;24.40;47.70
65582;DHT22;52231;40.090;18.348;2023-10-09T15:57:22;24.30;47.90
65582;DHT22;52231;40.090;18.348;2023-10-09T15:59:50;24.10;48.20
65582;DHT22;52231;40.090;18.348;2023-10-09T16:02:19;24.10;48.30
65582;DHT22;52231;40.090;18.348;2023-10-09T16:04:47;24.00;48.60
65582;DHT22;52231;40.090;18.348;2023-10-09T16:07:15;23.90;49.00
65582;DHT22;52231;40.090;18.348;2023-10-09T16:09:43;23.70;49.50
65582;DHT22;52231;40.090;18.348;2023-10-09T16:12:11;23.60;50.00
65582;DHT22;52231;40.090;18.348;2023-10-09T16:14:40;23.50;50.50
65582;DHT22;52231;40.090;18.348;2023-10-09T16:17:08;23.40;50.90
65582;DHT22;52231;40.090;18.348;2023-10-09T16:19:37;23.30;51.40
65582;DHT22;52231;40.090;18.348;2023-10-09T16:22:06;23.20;52.00
65582;DHT22;52231;40.090;18.348;2023-10-09T16:24:36;23.00;52.30
65582;DHT22;52231;40.090;18.348;2023-10-09T16:27:07;22.90;52.60
65582;DHT22;52231;40.090;18.348;2023-10-09T16:29:35;22.80;52.90